createdAt,value
2022-08-19T03:58:26.410Z,8.30
2022-08-19T04:01:34.738Z,8.38
2022-08-19T04:04:44.073Z,8.50
2022-08-19T04:07:46.566Z,7.80
2022-08-19T04:10:50.063Z,8.90
2022-08-19T04:13:54.046Z,7.78
2022-08-19T04:16:57.382Z,8.13
2022-08-19T04:20:00.613Z,7.97
2022-08-19T04:23:03.391Z,8.48
2022-08-19T04:26:05.818Z,7.97
2022-08-19T04:29:16.690Z,9.18
2022-08-19T04:32:19.084Z,7.50
2022-08-19T04:35:24.787Z,7.53
2022-08-19T04:38:27.469Z,7.70
2022-08-19T04:41:48.488Z,7.78
2022-08-19T04:44:51.691Z,7.85
2022-08-19T04:48:27.318Z,8.82
2022-08-19T04:51:21.611Z,8.32
2022-08-19T04:54:38.625Z,7.53
2022-08-19T04:57:41.643Z,8.95
2022-08-19T05:03:47.205Z,7.90
2022-08-19T05:06:51.555Z,8.10
2022-08-19T05:09:57.765Z,7.78
2022-08-19T05:13:01.827Z,7.85
2022-08-19T05:16:04.475Z,9.13
2022-08-19T05:22:33.878Z,7.22
2022-08-19T05:25:40.829Z,7.60
2022-08-19T05:28:44.243Z,6.87
2022-08-19T05:31:52.075Z,7.03
2022-08-19T05:34:54.842Z,6.72
2022-08-19T05:37:59.149Z,6.80
2022-08-19T05:41:01.621Z,6.72
2022-08-19T05:44:10.214Z,7.53
2022-08-19T05:47:15.752Z,6.87
2022-08-19T05:50:18.555Z,7.12
2022-08-19T05:53:20.892Z,6.25
2022-08-19T05:56:23.636Z,6.12
2022-08-19T06:02:34.276Z,7.05
2022-08-19T06:05:46.234Z,7.60
2022-08-19T06:08:54.695Z,7.47
2022-08-19T06:12:00.753Z,7.18
2022-08-19T06:15:07.377Z,6.32
2022-08-19T06:18:10.031Z,7.15
2022-08-19T06:21:12.411Z,5.85
2022-08-19T06:24:18.630Z,7.25
2022-08-19T06:27:22.237Z,6.80
2022-08-19T06:30:25.244Z,6.75
2022-08-19T06:36:38.244Z,5.72
2022-08-19T06:39:43.399Z,7.30
2022-08-19T06:42:54.715Z,6.55
2022-08-19T06:45:57.945Z,6.80
2022-08-19T06:49:01.901Z,6.68
2022-08-19T06:52:06.333Z,6.53
2022-08-19T06:55:09.405Z,6.87
2022-08-19T06:58:11.862Z,7.07
2022-08-19T07:01:14.734Z,5.90
2022-08-19T07:07:22.063Z,6.32
2022-08-19T07:10:25.716Z,12.48
2022-08-19T07:13:28.596Z,6.90
2022-08-19T07:16:31.126Z,7.85
2022-08-19T07:19:35.640Z,6.75
2022-08-19T07:22:40.113Z,7.22
2022-08-19T07:25:44.295Z,7.00
2022-08-19T07:28:52.872Z,7.32
2022-08-19T07:31:57.454Z,6.72
2022-08-19T07:35:04.294Z,6.93
2022-08-19T07:38:07.150Z,7.20
2022-08-19T07:44:17.874Z,6.43
2022-08-19T07:47:49.207Z,6.43
2022-08-19T07:50:43.337Z,7.32
2022-08-19T07:53:47.472Z,6.45
2022-08-19T07:56:52.511Z,6.10
2022-08-19T07:59:55.391Z,6.55
2022-08-19T08:02:58.160Z,5.60
2022-08-19T08:06:19.503Z,5.97
2022-08-19T08:09:43.164Z,6.60
2022-08-19T08:13:08.953Z,5.53
2022-08-19T08:16:14.159Z,5.72
2022-08-19T08:19:25.290Z,5.57
2022-08-19T08:22:47.059Z,6.07
2022-08-19T08:25:50.474Z,5.40
2022-08-19T08:28:54.272Z,5.25
2022-08-19T08:31:59.696Z,5.68
2022-08-19T08:35:02.899Z,5.72
2022-08-19T08:38:05.847Z,5.37
2022-08-19T08:41:47.555Z,5.90
2022-08-19T08:45:04.056Z,4.93
2022-08-19T08:48:25.195Z,5.25
2022-08-19T08:51:36.117Z,4.75
2022-08-19T08:54:55.019Z,4.93
2022-08-19T08:58:10.788Z,6.25
2022-08-19T09:01:13.436Z,5.78
2022-08-19T09:04:17.037Z,4.80
2022-08-19T09:07:41.512Z,5.40
2022-08-19T09:10:55.361Z,5.75
2022-08-19T09:14:34.999Z,5.80
2022-08-19T09:17:36.522Z,4.95
2022-08-19T09:20:42.581Z,5.82
2022-08-19T09:23:45.822Z,5.57
2022-08-19T09:26:53.262Z,5.40
2022-08-19T09:29:55.931Z,4.82
2022-08-19T09:36:10.073Z,5.37
2022-08-19T09:39:16.163Z,5.62
2022-08-19T09:42:30.110Z,5.95
2022-08-19T09:45:37.595Z,4.85
2022-08-19T09:48:41.504Z,6.10
2022-08-19T09:51:46.834Z,5.40
2022-08-19T09:54:54.184Z,6.10
2022-08-19T09:57:56.609Z,5.70
2022-08-19T10:01:00.979Z,5.18
2022-08-19T10:04:14.927Z,5.25
2022-08-19T10:07:23.010Z,5.60
2022-08-19T10:10:38.813Z,5.45
2022-08-19T10:13:46.162Z,5.15
2022-08-19T10:16:48.822Z,4.90
2022-08-19T10:19:55.514Z,5.85
2022-08-19T10:23:00.410Z,5.03
2022-08-19T10:26:07.086Z,6.03
2022-08-19T10:29:11.432Z,4.60
2022-08-19T10:32:14.371Z,5.45
2022-08-19T10:35:22.067Z,5.10
2022-08-19T10:38:31.844Z,5.97
2022-08-19T10:41:38.954Z,6.05
2022-08-19T10:44:42.293Z,6.57
2022-08-19T10:47:45.083Z,5.07
2022-08-19T10:51:05.842Z,4.60
2022-08-19T10:54:12.532Z,4.78
2022-08-19T10:57:16.508Z,5.05
2022-08-19T11:00:21.558Z,5.07
2022-08-19T11:03:25.696Z,6.18
2022-08-19T11:06:28.975Z,5.03
2022-08-19T11:09:34.411Z,6.05
2022-08-19T11:12:40.154Z,5.53
2022-08-19T11:15:42.837Z,7.40
2022-08-19T11:18:50.560Z,6.55
2022-08-19T11:21:55.348Z,6.37
2022-08-19T11:25:00.361Z,6.72
2022-08-19T11:28:02.902Z,7.40
2022-08-19T11:31:10.226Z,6.53
2022-08-19T11:34:17.370Z,5.45
2022-08-19T11:37:20.335Z,5.78
2022-08-19T11:40:24.189Z,5.80
2022-08-19T11:43:27.792Z,5.95
2022-08-19T11:46:30.476Z,4.80
2022-08-19T11:49:33.263Z,6.32
2022-08-19T11:52:35.728Z,5.40
2022-08-19T11:55:44.321Z,6.28
2022-08-19T11:58:47.698Z,6.22
2022-08-19T12:01:50.345Z,6.53
2022-08-19T12:04:52.967Z,6.37
2022-08-19T12:07:55.743Z,7.78
2022-08-19T12:10:58.670Z,8.00
2022-08-19T12:14:01.349Z,8.15
2022-08-19T12:17:07.302Z,9.27
2022-08-19T12:20:12.420Z,8.52
2022-08-19T12:23:15.199Z,8.75
2022-08-19T12:26:18.815Z,8.55
2022-08-19T12:29:23.828Z,7.82
2022-08-19T12:32:27.528Z,8.82
2022-08-19T12:35:31.766Z,8.25
2022-08-19T12:38:38.130Z,8.68
2022-08-19T12:41:43.318Z,9.40
2022-08-19T12:44:56.987Z,10.18
2022-08-19T12:48:00.102Z,9.57
2022-08-19T12:51:11.365Z,10.93
2022-08-19T12:54:14.122Z,11.55
2022-08-19T12:57:16.667Z,11.05
2022-08-19T13:00:22.253Z,12.02
2022-08-19T13:03:29.979Z,12.75
2022-08-19T13:06:32.597Z,12.57
2022-08-19T13:09:35.275Z,13.93
2022-08-19T13:12:38.383Z,11.70
2022-08-19T13:15:42.989Z,11.07
2022-08-19T13:18:53.674Z,7.60
2022-08-19T13:22:00.236Z,5.70
2022-08-19T13:25:06.790Z,5.37
2022-08-19T13:28:09.347Z,5.15
2022-08-19T13:31:36.826Z,5.18
2022-08-19T13:34:40.386Z,4.90
2022-08-19T13:37:43.178Z,4.78
2022-08-19T13:40:46.001Z,4.68
2022-08-19T13:43:49.815Z,4.30
2022-08-19T13:46:54.791Z,4.97
2022-08-19T13:49:57.614Z,4.82
2022-08-19T13:53:01.297Z,5.25
2022-08-19T13:56:06.714Z,5.62
2022-08-19T13:59:09.226Z,5.25
2022-08-19T14:02:12.006Z,6.80
2022-08-19T14:05:17.633Z,8.77
2022-08-19T14:08:20.211Z,6.97
2022-08-19T14:11:23.897Z,5.18
2022-08-19T14:14:26.268Z,4.45
2022-08-19T14:17:29.759Z,5.47
2022-08-19T14:20:35.952Z,5.32
2022-08-19T14:23:38.696Z,5.25
2022-08-19T14:29:43.557Z,5.37
2022-08-19T14:32:46.567Z,4.20
2022-08-19T14:35:49.346Z,4.35
2022-08-19T14:38:51.853Z,3.85
2022-08-19T14:41:54.608Z,3.47
2022-08-19T14:45:01.127Z,3.95
2022-08-19T14:48:05.665Z,3.17
2022-08-19T14:51:08.820Z,4.43
2022-08-19T14:54:11.484Z,3.10
